Capitol Logistics 2611

Operating for CKS



KORD
Chicago O'Hare International Airport
Chicago, Illinois
KMIA
Miami International Airport
Miami, Florida

Route Details

Aircraft Information
Primary: Boeing 747-400BCF
Backup: Not Available
Route Data
Distance: 1200nm
Duration: 2h 18m
Recm'd Route: CMSKY CARYN CYBIL PXV J73 LGC GOONS BULZI Q81 ENDEW JUULI SSCOT5
Origin Wx: KORD 191051Z 20006KT 10SM FEW055 SCT150 BKN250 23/19 A2979 RMK AO2 SLP082 T02280189 $
Dest. Wx: KMIA 191053Z COR 14006KT 10SM FEW023 SCT090 BKN200 OVC250 28/24 A3008 RMK AO2 SLP185 T02780244 $
Notes: 2X PER WEEK